Pagina principală
METAR-TAF:

METAR-TAF

Aeroporturi :

Nouméa, Noua Caledonie

Latitudine: 22-15-30S, longitudine: 166-28-22E, elevație: 3 m

METAR: lipsă

Ora: 03:18 (16:18 UTC)

Prognoză

Raportul a fost făcut în urmă cu 5 ore și 18 de minute, la 11:00 UTC
Prognoză valabilă de la 21 ora 12 UTC la 22 ora 12 UTC
Vânt 8 kt de la Est
Vizibilitate de 10 km sau mai mult
Nori puțini la o înălțime de 2500 picior
Nori împrăștiați la o înălțime de 5000 picior
Nori fragmentați la o înălțime de 18000 picior

TAF: NWWM 211100Z 2112/2212 09008KT 9999 FEW025 SCT050 BKN180

Observații și prognoze meteo pentru peste 4.000 de aeroporturi (rapoarte METAR și TAF).

Stațiile disponibile sunt reprezentate pe hartă prin puncte galbene și roșii.

Țineți indicatorul mouse-ului pe punctul dorit pentru a vedea denumirea stației.

Apoi, faceți clic pentru a vedea observațiile și prognozele meteorologice.

Pentru a schimba harta: Pentru mărire, faceți clic pe butoanele verzi cu cruce neagră; pentru micșorare, pe butonul verde cu o liniuță; pentru hărți învecinate, pe săgețile verzi.


METAR-TAF: